Погода Бастусна 2 недели

Сан-Паулу, Бразилия

17 - 30 июля
  • 17июля
    Сегодня
    +16°
    +29°
    Ясно и безоблачно
    ВремяПогодаТемператураВлажностьДавлениеВетер, м/сВероятность осадков
    00:00Ясно и безоблачно+19°C66 %729 мм2.7 м/с5 %
    03:00Ясно и безоблачно+18°C74 %729 мм3.7 м/с5 %
    06:00Ясно и безоблачно+17°C86 %729 мм3.4 м/с5 %
    09:00Ясно и безоблачно+20°C73 %731 мм2.9 м/с5 %
    12:00Ясно и безоблачно+27°C46 %730 мм2.7 м/с5 %
    15:00Ясно и безоблачно+28°C36 %728 мм0.6 м/с5 %
    18:00Ясно и безоблачно+25°C53 %727 мм1.9 м/с5 %
    21:00Ясно и безоблачно+22°C62 %728 мм2.1 м/с5 %
  • 18июля
    Четверг
    +16°
    +30°
    Ясно и безоблачно
    ВремяПогодаТемператураВлажностьДавлениеВетер, м/сВероятность осадков
    00:00Ясно и безоблачно+20°C67 %728 мм3.1 м/с5 %
    03:00Ясно и безоблачно+18°C77 %726 мм2.8 м/с5 %
    06:00Ясно и безоблачно+17°C82 %727 мм2.7 м/с5 %
    09:00Ясно и безоблачно+21°C67 %729 мм2.5 м/с5 %
    12:00Ясно и безоблачно+28°C41 %729 мм3.2 м/с5 %
    15:00Ясно и безоблачно+29°C32 %727 мм2.1 м/с5 %
    18:00Ясно и безоблачно+25°C50 %727 мм2.5 м/с5 %
    21:00Ясно и безоблачно+22°C55 %727 мм2.3 м/с5 %
  • 19июля
    Пятница
    +15°
    +30°
    Ясно и безоблачно
    ВремяПогодаТемператураВлажностьДавлениеВетер, м/сВероятность осадков
    00:00Ясно и безоблачно+19°C64 %728 мм2.7 м/с5 %
    03:00Ясно и безоблачно+17°C67 %727 мм3.3 м/с5 %
    06:00Ясно и безоблачно+17°C71 %727 мм3.4 м/с5 %
    09:00Ясно и безоблачно+21°C65 %730 мм3.4 м/с5 %
    12:00Ясно и безоблачно+29°C39 %730 мм3.2 м/с5 %
    15:00Ясно и безоблачно+29°C29 %728 мм1.2 м/с5 %
    18:00Ясно и безоблачно+26°C46 %728 мм2.3 м/с5 %
    21:00Ясно и безоблачно+22°C60 %729 мм2.7 м/с5 %
  • 20июля
    Суббота
    +16°
    +30°
    Ясно и безоблачно
    ВремяПогодаТемператураВлажностьДавлениеВетер, м/сВероятность осадков
    00:00Ясно и безоблачно+19°C73 %729 мм2.8 м/с5 %
    03:00Ясно и безоблачно+18°C83 %728 мм2.9 м/с5 %
    06:00Ясно и безоблачно+17°C87 %728 мм2.7 м/с5 %
    09:00Ясно и безоблачно+20°C68 %729 мм2.4 м/с5 %
    12:00Ясно и безоблачно+28°C39 %730 мм2.2 м/с5 %
    15:00Ясно и безоблачно+30°C31 %727 мм0.9 м/с5 %
    18:00Ясно и безоблачно+26°C47 %727 мм1.9 м/с5 %
    21:00Ясно и безоблачно+23°C60 %727 мм3.1 м/с5 %
  • 21июля
    Воскресенье
    +17°
    +30°
    Ясно и безоблачно
    ВремяПогодаТемператураВлажностьДавлениеВетер, м/сВероятность осадков
    00:00Ясно и безоблачно+20°C67 %727 мм3.5 м/с5 %
    03:00Ясно и безоблачно+18°C71 %726 мм3.6 м/с5 %
    06:00Ясно и безоблачно+17°C68 %726 мм3.5 м/с5 %
    09:00Ясно и безоблачно+20°C63 %728 мм3.5 м/с5 %
    12:00Ясно и безоблачно+29°C41 %728 мм3.3 м/с5 %
    15:00Ясно и безоблачно+30°C32 %726 мм2.2 м/с5 %
    18:00Ясно и безоблачно+27°C47 %726 мм2.4 м/с5 %
    21:00Ясно и безоблачно+24°C50 %726 мм2.8 м/с5 %
Мы используем cookies
Соглашаюсь